Terminal Aerodrome Forecast
Issued by NWS

Home | Current Version | Previous Version | Text Only | Print | Product List | Glossary On
Versions: 1 2 3 4 5 6 7 8 9 10 11 12 13 14 15 16 17 18 19 20 21 22 23 24
000
FTUS41 KGYX 221723
TAFLEB
TAF
KLEB 221723Z 2218/2318 27014G22KT P6SM BKN050
     FM230000 30006KT P6SM SKC
     FM230600 00000KT P6SM SKC
     FM231000 00000KT 1/2SM FG OVC001
     FM231400 35005KT P6SM OVC100=

USA.gov is the U.S. government's official web portal to all federal, state and local government web resources and services.